createdAt,value
2023-03-02T00:01:54.248Z,5.50
2023-03-02T00:04:32.026Z,5.80
2023-03-02T00:07:04.541Z,5.60
2023-03-02T00:09:32.511Z,5.60
2023-03-02T00:11:59.383Z,5.60
2023-03-02T00:14:26.138Z,5.60
2023-03-02T00:16:52.996Z,5.60
2023-03-02T00:19:19.706Z,5.50
2023-03-02T00:24:15.611Z,5.50
2023-03-02T00:26:42.512Z,5.50
2023-03-02T00:29:09.349Z,5.50
2023-03-02T00:31:38.061Z,5.50
2023-03-02T00:34:04.941Z,5.50
2023-03-02T00:36:32.364Z,5.50
2023-03-02T00:38:59.491Z,5.60
2023-03-02T00:41:26.209Z,5.60
2023-03-02T00:43:53.038Z,5.60
2023-03-02T00:46:23.465Z,5.60
2023-03-02T00:48:52.053Z,5.60
2023-03-02T00:51:19.452Z,5.60
2023-03-02T00:53:46.345Z,7.90
2023-03-02T00:56:13.369Z,5.60
2023-03-02T00:58:40.545Z,5.60
2023-03-02T01:01:13.562Z,5.40
2023-03-02T01:03:40.404Z,5.60
2023-03-02T01:06:19.519Z,5.70
2023-03-02T01:08:47.321Z,5.60
2023-03-02T01:11:21.939Z,5.60
2023-03-02T01:13:50.242Z,5.50
2023-03-02T01:16:18.220Z,5.40
2023-03-02T01:21:15.780Z,5.50
2023-03-02T01:23:42.954Z,5.40
2023-03-02T01:26:09.908Z,5.40
2023-03-02T01:28:36.780Z,5.40
2023-03-02T01:31:04.615Z,5.40
2023-03-02T01:33:32.882Z,5.40
2023-03-02T01:36:00.012Z,5.40
2023-03-02T01:38:27.625Z,5.30
2023-03-02T01:40:54.434Z,5.50
2023-03-02T01:46:03.013Z,5.20
2023-03-02T01:48:52.703Z,5.20
2023-03-02T01:51:23.722Z,5.20
2023-03-02T01:53:56.873Z,5.10
2023-03-02T01:56:32.393Z,5.10
2023-03-02T01:59:07.646Z,5.00
2023-03-02T02:01:39.386Z,5.00
2023-03-02T02:04:07.525Z,5.00
2023-03-02T02:06:49.903Z,4.90
2023-03-02T02:09:20.710Z,4.90
2023-03-02T02:11:48.062Z,4.80
2023-03-02T02:14:15.988Z,4.90
2023-03-02T02:16:42.928Z,4.90
2023-03-02T02:19:38.161Z,4.90
2023-03-02T02:22:04.996Z,4.80
2023-03-02T02:24:45.965Z,4.80
2023-03-02T02:27:14.567Z,4.80
2023-03-02T02:29:48.126Z,4.80
2023-03-02T02:32:30.287Z,4.80
2023-03-02T02:35:25.044Z,4.80
2023-03-02T02:37:59.183Z,4.70
2023-03-02T02:41:07.954Z,4.80
2023-03-02T02:43:34.980Z,4.80
2023-03-02T02:46:02.885Z,4.80
2023-03-02T02:48:32.496Z,4.70
2023-03-02T02:51:00.581Z,4.70
2023-03-02T02:53:44.624Z,4.60
2023-03-02T02:56:14.104Z,4.60
2023-03-02T02:58:47.251Z,4.60
2023-03-02T03:01:26.132Z,4.60
2023-03-02T03:04:01.816Z,4.50
2023-03-02T03:06:42.429Z,4.50
2023-03-02T03:09:11.593Z,4.40
2023-03-02T03:11:44.817Z,4.40
2023-03-02T03:14:16.039Z,4.30
2023-03-02T03:16:47.142Z,4.30
2023-03-02T03:19:33.393Z,4.70
2023-03-02T03:22:02.291Z,4.30
2023-03-02T03:24:32.945Z,4.30
2023-03-02T03:27:01.407Z,4.30
2023-03-02T03:29:30.070Z,4.20
2023-03-02T03:31:58.281Z,4.20
2023-03-02T03:34:26.611Z,4.20
2023-03-02T03:36:53.933Z,4.20
2023-03-02T03:39:21.114Z,4.20
2023-03-02T03:41:47.889Z,4.10
2023-03-02T03:44:14.648Z,4.20
2023-03-02T03:46:41.441Z,4.20
2023-03-02T03:49:08.231Z,4.20
2023-03-02T03:51:35.589Z,4.10
2023-03-02T03:54:05.379Z,4.10
2023-03-02T03:56:38.871Z,4.10
2023-03-02T03:59:09.746Z,4.10
2023-03-02T04:02:08.360Z,4.10
2023-03-02T04:04:36.185Z,4.10
2023-03-02T04:07:03.393Z,4.10
2023-03-02T04:09:32.261Z,4.10
2023-03-02T04:11:59.079Z,4.10
2023-03-02T04:14:25.977Z,4.20
2023-03-02T04:16:53.200Z,4.20
2023-03-02T04:19:20.834Z,4.20
2023-03-02T04:21:52.510Z,4.20
2023-03-02T04:24:22.307Z,5.80
2023-03-02T04:26:50.506Z,4.10
2023-03-02T04:29:18.554Z,4.00
2023-03-02T04:31:45.431Z,4.10
2023-03-02T04:34:12.164Z,4.00
2023-03-02T04:36:40.516Z,4.10
2023-03-02T04:39:08.175Z,4.10
2023-03-02T04:41:35.929Z,4.00
2023-03-02T04:44:02.915Z,4.00
2023-03-02T04:46:29.861Z,3.90
2023-03-02T04:48:56.709Z,4.00
2023-03-02T04:51:37.504Z,4.00
2023-03-02T04:54:10.998Z,4.00
2023-03-02T04:56:37.810Z,4.00
2023-03-02T04:59:04.623Z,3.90
2023-03-02T05:01:31.543Z,3.90
2023-03-02T05:03:58.396Z,3.90
2023-03-02T05:06:25.277Z,3.90
2023-03-02T05:08:53.230Z,3.90
2023-03-02T05:11:23.248Z,3.80
2023-03-02T05:13:59.922Z,3.80
2023-03-02T05:16:29.280Z,3.90
2023-03-02T05:18:56.401Z,4.00
2023-03-02T05:21:24.481Z,3.90
2023-03-02T05:23:53.791Z,3.90
2023-03-02T05:26:20.798Z,3.90
2023-03-02T05:28:47.630Z,3.80
2023-03-02T05:31:21.315Z,3.80
2023-03-02T05:33:48.697Z,3.80
2023-03-02T05:36:18.995Z,3.80
2023-03-02T05:38:46.705Z,3.90
2023-03-02T05:41:13.494Z,3.80
2023-03-02T05:43:40.646Z,3.70
2023-03-02T05:46:07.600Z,3.70
2023-03-02T05:48:34.406Z,3.70
2023-03-02T05:53:28.518Z,4.10
2023-03-02T05:55:55.532Z,3.70
2023-03-02T05:58:22.373Z,3.60
2023-03-02T06:00:49.875Z,3.60
2023-03-02T06:03:17.227Z,3.60
2023-03-02T06:05:44.582Z,3.60
2023-03-02T06:08:11.327Z,3.60
2023-03-02T06:10:38.569Z,3.60
2023-03-02T06:13:05.333Z,3.60
2023-03-02T06:15:32.144Z,3.40
2023-03-02T06:17:58.967Z,3.50
2023-03-02T06:20:25.928Z,3.50
2023-03-02T06:25:23.709Z,3.50
2023-03-02T06:27:52.389Z,3.40
2023-03-02T06:30:24.101Z,3.60
2023-03-02T06:32:51.477Z,3.40
2023-03-02T06:35:18.899Z,3.40
2023-03-02T06:37:45.711Z,3.30
2023-03-02T06:40:13.899Z,3.40
2023-03-02T06:42:42.683Z,3.30
2023-03-02T06:45:11.376Z,3.20
2023-03-02T06:47:38.536Z,3.30
2023-03-02T06:50:06.499Z,3.30
2023-03-02T06:52:33.741Z,3.20
2023-03-02T06:55:00.581Z,3.20
2023-03-02T06:57:33.700Z,3.10
2023-03-02T07:00:09.535Z,2.90
2023-03-02T07:02:37.636Z,3.00
2023-03-02T07:05:06.495Z,3.00
2023-03-02T07:07:33.225Z,2.90
2023-03-02T07:09:59.971Z,2.90
2023-03-02T07:12:26.943Z,2.90
2023-03-02T07:14:53.742Z,2.80
2023-03-02T07:17:20.560Z,2.80
2023-03-02T07:19:47.440Z,2.70
2023-03-02T07:22:14.341Z,2.60
2023-03-02T07:24:41.954Z,2.70
2023-03-02T07:27:09.732Z,2.80
2023-03-02T07:29:36.456Z,2.80
2023-03-02T07:32:04.232Z,2.80
2023-03-02T07:34:31.022Z,2.80
2023-03-02T07:36:57.897Z,2.90
2023-03-02T07:39:24.645Z,2.90
2023-03-02T07:41:51.356Z,3.00
2023-03-02T07:44:18.050Z,2.80
2023-03-02T07:46:44.865Z,3.00
2023-03-02T07:49:11.580Z,3.10
2023-03-02T07:51:38.336Z,3.10
2023-03-02T07:54:05.171Z,3.20
2023-03-02T07:56:31.987Z,3.10
2023-03-02T07:58:58.725Z,3.20
2023-03-02T08:01:25.861Z,3.10
2023-03-02T08:03:52.831Z,3.30
2023-03-02T08:06:19.960Z,3.30
2023-03-02T08:11:18.400Z,3.30
2023-03-02T08:13:46.361Z,3.40
2023-03-02T08:16:15.842Z,3.40
2023-03-02T08:18:43.773Z,3.40
2023-03-02T08:21:21.230Z,3.50
2023-03-02T08:23:49.717Z,3.50
2023-03-02T08:26:19.506Z,3.60
2023-03-02T08:28:47.034Z,3.60
2023-03-02T08:31:14.180Z,3.70
2023-03-02T08:33:42.179Z,3.70
2023-03-02T08:36:16.408Z,3.80
2023-03-02T08:38:44.506Z,3.80
2023-03-02T08:41:16.285Z,3.90
2023-03-02T08:43:43.059Z,3.90
2023-03-02T08:46:12.367Z,4.00
2023-03-02T08:48:39.615Z,4.00
2023-03-02T08:51:11.734Z,4.10
2023-03-02T08:53:42.498Z,4.10
2023-03-02T08:56:26.067Z,4.10
2023-03-02T08:58:57.537Z,4.20
2023-03-02T09:01:29.947Z,4.20
2023-03-02T09:03:59.947Z,4.20
2023-03-02T09:06:32.740Z,4.30
2023-03-02T09:08:59.769Z,4.30
2023-03-02T09:11:26.997Z,4.30
2023-03-02T09:13:54.630Z,4.20
2023-03-02T09:16:21.707Z,4.40
2023-03-02T09:18:48.644Z,4.40
2023-03-02T09:21:15.586Z,4.50
2023-03-02T09:23:42.595Z,4.50
2023-03-02T09:26:09.689Z,4.60
2023-03-02T09:28:37.510Z,4.60
2023-03-02T09:31:07.599Z,4.60
2023-03-02T09:33:34.803Z,4.60
2023-03-02T09:36:11.551Z,4.60
2023-03-02T09:38:38.583Z,4.70
2023-03-02T09:41:52.377Z,4.70
2023-03-02T09:44:43.987Z,4.70
2023-03-02T09:47:50.431Z,4.80
2023-03-02T09:50:31.616Z,4.90
2023-03-02T09:53:31.129Z,4.90
2023-03-02T09:56:02.404Z,5.00
2023-03-02T09:58:36.202Z,5.00
2023-03-02T10:01:12.569Z,5.10
2023-03-02T10:03:50.911Z,5.10
2023-03-02T10:06:17.787Z,5.10
2023-03-02T10:08:44.674Z,5.20
2023-03-02T10:11:24.644Z,5.20
2023-03-02T10:14:12.849Z,5.30
2023-03-02T10:17:14.291Z,5.40
2023-03-02T10:19:49.566Z,5.30
2023-03-02T10:22:38.022Z,5.40
2023-03-02T10:25:43.320Z,5.40
2023-03-02T10:28:35.474Z,5.50
2023-03-02T10:31:17.165Z,5.50
2023-03-02T10:33:44.110Z,5.50
2023-03-02T10:36:40.116Z,5.60
2023-03-02T10:39:17.924Z,5.60
2023-03-02T10:42:03.545Z,5.70
2023-03-02T10:44:38.223Z,5.70
2023-03-02T10:47:07.627Z,5.70
2023-03-02T10:49:42.803Z,5.70
2023-03-02T10:54:42.570Z,5.80
2023-03-02T10:57:37.065Z,7.40
2023-03-02T11:00:23.276Z,5.80
2023-03-02T11:03:00.588Z,5.80
2023-03-02T11:05:33.784Z,5.80
2023-03-02T11:08:09.617Z,5.70
2023-03-02T11:10:40.814Z,5.70
2023-03-02T11:13:23.783Z,5.70
2023-03-02T11:15:54.460Z,5.70
2023-03-02T11:18:32.884Z,5.60
2023-03-02T11:21:05.705Z,5.60
2023-03-02T11:23:59.911Z,5.60
2023-03-02T11:26:35.540Z,5.60
2023-03-02T11:29:23.409Z,5.60
2023-03-02T11:32:11.126Z,5.60
2023-03-02T11:35:09.184Z,5.50
2023-03-02T11:37:53.572Z,5.60
2023-03-02T11:40:34.521Z,5.70
2023-03-02T11:43:04.923Z,5.60
2023-03-02T11:45:37.358Z,5.70
2023-03-02T11:48:33.159Z,5.60
2023-03-02T11:51:23.241Z,5.70
2023-03-02T11:54:04.692Z,5.80
2023-03-02T11:56:36.700Z,5.90
2023-03-02T11:59:25.757Z,6.10
2023-03-02T12:01:57.059Z,5.90
2023-03-02T12:04:32.373Z,6.00
2023-03-02T12:07:03.904Z,5.90
2023-03-02T12:09:37.655Z,6.10
2023-03-02T12:12:48.159Z,6.10
2023-03-02T12:15:40.835Z,6.10
2023-03-02T12:18:22.800Z,6.10
2023-03-02T12:21:12.906Z,6.20
2023-03-02T12:23:56.902Z,6.20
2023-03-02T12:26:29.641Z,6.20
2023-03-02T12:29:22.583Z,6.20
2023-03-02T12:31:54.322Z,6.20
2023-03-02T12:34:35.004Z,6.20
2023-03-02T12:37:26.728Z,6.30
2023-03-02T12:40:27.781Z,6.30
2023-03-02T12:43:26.110Z,6.30
2023-03-02T12:46:33.894Z,6.20
2023-03-02T12:49:32.980Z,6.20
2023-03-02T12:52:18.570Z,6.20
2023-03-02T12:54:45.354Z,6.10
2023-03-02T12:57:19.570Z,6.10
2023-03-02T12:59:55.872Z,6.10
2023-03-02T13:02:28.585Z,6.10
2023-03-02T13:05:05.158Z,6.10
2023-03-02T13:07:43.857Z,6.00
2023-03-02T13:10:29.372Z,6.10
2023-03-02T13:12:58.443Z,6.10
2023-03-02T13:15:25.211Z,6.10
2023-03-02T13:17:59.942Z,6.10
2023-03-02T13:20:29.860Z,6.10
2023-03-02T13:22:57.124Z,6.10
2023-03-02T13:25:28.910Z,6.10
2023-03-02T13:28:07.434Z,6.20
2023-03-02T13:30:37.518Z,6.10
2023-03-02T13:33:25.024Z,6.10
2023-03-02T13:35:51.906Z,6.10
2023-03-02T13:38:22.417Z,6.10
2023-03-02T13:40:53.205Z,6.20
2023-03-02T13:43:40.930Z,6.20
2023-03-02T13:46:36.309Z,6.20
2023-03-02T13:49:10.694Z,6.30
2023-03-02T13:51:48.194Z,6.30
2023-03-02T13:54:27.612Z,6.40
2023-03-02T13:57:00.858Z,6.40
2023-03-02T13:59:28.293Z,6.50
2023-03-02T14:01:55.410Z,6.50
2023-03-02T14:04:23.716Z,6.60
2023-03-02T14:06:54.336Z,6.60
2023-03-02T14:09:21.814Z,6.70
2023-03-02T14:11:53.667Z,6.70
2023-03-02T14:14:25.061Z,6.80
2023-03-02T14:16:52.362Z,6.80
2023-03-02T14:19:20.131Z,6.80
2023-03-02T14:21:47.974Z,6.80
2023-03-02T14:24:14.922Z,6.80
2023-03-02T14:26:49.048Z,6.80
2023-03-02T14:29:34.429Z,6.80
2023-03-02T14:32:04.212Z,6.80
2023-03-02T14:34:30.986Z,6.80
2023-03-02T14:37:02.659Z,6.80
2023-03-02T14:39:38.877Z,6.80
2023-03-02T14:42:11.296Z,6.70
2023-03-02T14:44:38.489Z,6.70
2023-03-02T14:47:05.305Z,6.70
2023-03-02T14:49:32.161Z,6.70
2023-03-02T14:52:20.655Z,6.60
2023-03-02T14:54:54.240Z,6.60
2023-03-02T14:57:25.394Z,6.50
2023-03-02T14:59:53.991Z,6.40
2023-03-02T15:02:26.197Z,6.40
2023-03-02T15:04:56.820Z,6.30
2023-03-02T15:07:28.798Z,6.30
2023-03-02T15:09:57.521Z,6.30
2023-03-02T15:12:24.434Z,6.10
2023-03-02T15:14:51.464Z,6.20
2023-03-02T15:17:18.216Z,6.20
2023-03-02T15:19:44.985Z,6.20
2023-03-02T15:22:13.557Z,6.20
2023-03-02T15:24:40.336Z,6.20
2023-03-02T15:27:07.688Z,6.30
2023-03-02T15:29:34.593Z,6.30
2023-03-02T15:32:01.495Z,6.30
2023-03-02T15:34:28.326Z,6.30
2023-03-02T15:36:55.176Z,6.30
2023-03-02T15:39:21.928Z,6.30
2023-03-02T15:41:48.656Z,6.30
2023-03-02T15:44:22.414Z,6.30
2023-03-02T15:46:51.712Z,6.20
2023-03-02T15:49:22.761Z,6.20
2023-03-02T15:51:51.922Z,6.10
2023-03-02T15:54:19.227Z,6.10
2023-03-02T15:56:49.682Z,6.10
2023-03-02T15:59:16.499Z,6.10
2023-03-02T16:01:44.223Z,6.00
2023-03-02T16:04:11.123Z,6.00
2023-03-02T16:06:38.826Z,5.90
2023-03-02T16:09:05.836Z,5.80
2023-03-02T16:11:32.730Z,5.90
2023-03-02T16:13:59.584Z,5.90
2023-03-02T16:16:26.494Z,5.70
2023-03-02T16:18:56.138Z,5.80
2023-03-02T16:21:25.874Z,5.80
2023-03-02T16:23:53.625Z,5.80
2023-03-02T16:26:22.336Z,5.70
2023-03-02T16:28:49.435Z,5.70
2023-03-02T16:31:20.844Z,5.60
2023-03-02T16:33:50.171Z,5.60
2023-03-02T16:36:17.011Z,5.50
2023-03-02T16:38:43.734Z,5.50
2023-03-02T16:41:21.541Z,5.40
2023-03-02T16:43:55.552Z,5.40
2023-03-02T16:46:23.623Z,5.30
2023-03-02T16:48:50.921Z,5.30
2023-03-02T16:51:18.714Z,5.30
2023-03-02T16:53:46.067Z,5.30
2023-03-02T16:56:13.770Z,5.30
2023-03-02T16:58:42.021Z,5.30
2023-03-02T17:01:13.556Z,5.20
2023-03-02T17:03:41.609Z,5.20
2023-03-02T17:06:11.532Z,5.20
2023-03-02T17:08:38.552Z,5.20
2023-03-02T17:11:06.017Z,5.20
2023-03-02T17:13:32.806Z,5.20
2023-03-02T17:15:59.796Z,5.20
2023-03-02T17:18:28.111Z,5.20
2023-03-02T17:20:58.045Z,5.20
2023-03-02T17:23:27.076Z,5.20
2023-03-02T17:25:55.519Z,5.20
2023-03-02T17:28:22.375Z,5.10
2023-03-02T17:30:49.462Z,5.20
2023-03-02T17:33:17.108Z,5.20
2023-03-02T17:35:43.916Z,5.20
2023-03-02T17:38:11.499Z,5.10
2023-03-02T17:40:38.474Z,5.20
2023-03-02T17:43:05.272Z,4.30
2023-03-02T17:45:32.074Z,5.20
2023-03-02T17:47:59.108Z,5.20
2023-03-02T17:50:27.247Z,5.20
2023-03-02T17:52:54.344Z,5.20
2023-03-02T17:55:21.161Z,5.20
2023-03-02T17:57:47.969Z,5.30
2023-03-02T18:00:19.638Z,5.30
2023-03-02T18:02:46.443Z,5.30
2023-03-02T18:05:13.265Z,5.30
2023-03-02T18:07:40.068Z,5.20
2023-03-02T18:10:07.825Z,5.20
2023-03-02T18:12:35.221Z,5.10
2023-03-02T18:15:02.091Z,5.10
2023-03-02T18:17:29.128Z,5.00
2023-03-02T18:22:23.096Z,5.00
2023-03-02T18:24:51.159Z,4.90
2023-03-02T18:27:17.940Z,4.90
2023-03-02T18:29:44.777Z,4.80
2023-03-02T18:32:12.103Z,4.40
2023-03-02T18:34:38.981Z,4.70
2023-03-02T18:37:05.991Z,4.70
2023-03-02T18:39:32.791Z,4.60
2023-03-02T18:41:59.751Z,4.60
2023-03-02T18:44:28.367Z,4.60
2023-03-02T18:46:55.794Z,4.90
2023-03-02T18:49:23.406Z,4.60
2023-03-02T18:51:50.622Z,4.60
2023-03-02T18:54:17.359Z,4.40
2023-03-02T18:56:44.583Z,4.60
2023-03-02T18:59:12.164Z,4.60
2023-03-02T19:01:42.113Z,4.60
2023-03-02T19:04:08.939Z,4.60
2023-03-02T19:06:35.953Z,4.60
2023-03-02T19:09:02.745Z,4.60
2023-03-02T19:11:29.539Z,4.60
2023-03-02T19:13:56.302Z,4.60
2023-03-02T19:16:23.071Z,4.50
2023-03-02T19:18:50.139Z,4.50
2023-03-02T19:21:17.503Z,4.60
2023-03-02T19:23:46.429Z,4.50
2023-03-02T19:26:13.709Z,4.60
2023-03-02T19:28:40.611Z,4.50
2023-03-02T19:31:09.374Z,4.50
2023-03-02T19:33:36.446Z,4.50
2023-03-02T19:36:08.013Z,4.50
2023-03-02T19:38:40.621Z,4.50
2023-03-02T19:41:11.125Z,4.50
2023-03-02T19:43:38.067Z,4.50
2023-03-02T19:46:05.245Z,4.40
2023-03-02T19:48:33.991Z,4.40
2023-03-02T19:51:00.772Z,4.40
2023-03-02T19:53:27.495Z,4.30
2023-03-02T19:55:59.808Z,4.30
2023-03-02T19:58:28.252Z,4.30
2023-03-02T20:00:55.392Z,4.30
2023-03-02T20:03:22.231Z,4.30
2023-03-02T20:05:49.465Z,4.30
2023-03-02T20:08:17.075Z,4.30
2023-03-02T20:10:49.549Z,4.40
2023-03-02T20:13:17.600Z,4.30
2023-03-02T20:15:46.975Z,4.30
2023-03-02T20:18:19.976Z,4.30
2023-03-02T20:20:48.407Z,4.30
2023-03-02T20:23:16.139Z,4.20
2023-03-02T20:25:43.461Z,4.60
2023-03-02T20:28:13.660Z,4.40
2023-03-02T20:30:51.909Z,4.40
2023-03-02T20:33:24.048Z,4.50
2023-03-02T20:35:55.155Z,4.30
2023-03-02T20:38:32.458Z,4.50
2023-03-02T20:41:01.263Z,4.50
2023-03-02T20:43:29.144Z,4.50
2023-03-02T20:45:59.403Z,4.50
2023-03-02T20:48:27.299Z,4.50
2023-03-02T20:50:54.884Z,4.50
2023-03-02T20:53:22.142Z,4.40
2023-03-02T20:55:49.273Z,4.40
2023-03-02T20:58:16.258Z,4.30
2023-03-02T21:00:43.637Z,4.30
2023-03-02T21:03:10.481Z,4.30
2023-03-02T21:05:40.690Z,4.30
2023-03-02T21:08:12.564Z,4.50
2023-03-02T21:10:42.923Z,4.20
2023-03-02T21:13:11.812Z,4.20
2023-03-02T21:15:40.953Z,4.20
2023-03-02T21:18:07.847Z,4.10
2023-03-02T21:20:36.032Z,4.10
2023-03-02T21:23:04.044Z,3.90
2023-03-02T21:25:31.431Z,4.10
2023-03-02T21:27:58.786Z,4.00
2023-03-02T21:30:31.006Z,3.90
2023-03-02T21:33:02.028Z,3.90
2023-03-02T21:35:29.559Z,4.00
2023-03-02T21:38:04.704Z,3.90
2023-03-02T21:40:40.714Z,4.00
2023-03-02T21:43:13.252Z,4.00
2023-03-02T21:45:41.405Z,3.90
2023-03-02T21:48:08.603Z,3.90
2023-03-02T21:50:38.560Z,4.00
2023-03-02T21:53:06.536Z,4.00
2023-03-02T21:55:34.215Z,4.00
2023-03-02T21:58:01.005Z,4.00
2023-03-02T22:00:38.684Z,3.90
2023-03-02T22:03:06.907Z,4.00
2023-03-02T22:05:34.796Z,4.10
2023-03-02T22:08:01.525Z,4.10
2023-03-02T22:10:41.824Z,4.10
2023-03-02T22:13:23.681Z,4.00
2023-03-02T22:15:58.165Z,4.10
2023-03-02T22:18:27.057Z,4.00
2023-03-02T22:20:53.815Z,4.30
2023-03-02T22:23:27.213Z,4.00
2023-03-02T22:26:02.049Z,4.00
2023-03-02T22:28:29.011Z,4.00
2023-03-02T22:31:00.452Z,4.00
2023-03-02T22:33:29.460Z,3.80
2023-03-02T22:36:22.512Z,3.90
2023-03-02T22:38:49.300Z,3.90
2023-03-02T22:41:20.802Z,4.00
2023-03-02T22:43:49.391Z,4.00
2023-03-02T22:46:20.560Z,3.90
2023-03-02T22:48:52.587Z,4.00
2023-03-02T22:51:27.698Z,3.90
2023-03-02T22:54:00.433Z,4.00
2023-03-02T22:56:42.573Z,4.00
2023-03-02T22:59:26.972Z,4.00
2023-03-02T23:02:13.992Z,3.90
2023-03-02T23:04:50.097Z,3.70
2023-03-02T23:07:22.187Z,3.90
2023-03-02T23:09:49.243Z,3.90
2023-03-02T23:12:26.667Z,3.90
2023-03-02T23:15:00.004Z,4.10
2023-03-02T23:17:39.570Z,3.90
2023-03-02T23:20:11.552Z,3.90
2023-03-02T23:22:39.122Z,3.90
2023-03-02T23:25:09.275Z,3.90
2023-03-02T23:27:36.280Z,3.90
2023-03-02T23:30:04.482Z,4.00
2023-03-02T23:32:31.362Z,3.90
2023-03-02T23:34:58.195Z,4.00
2023-03-02T23:37:25.029Z,4.00
2023-03-02T23:42:21.873Z,4.00
2023-03-02T23:52:10.414Z,4.00
2023-03-02T23:54:39.048Z,4.00
2023-03-02T23:57:05.879Z,4.00
2023-03-02T23:59:32.612Z,3.90
